This is the latest recevied weather packets stored in our database for station/object 4S6DRJ-13. If no packets are shown the sender has not sent any weather packets the latest 10 day(s).
| Time | Temp. | Humidity | Pressure | Rain* | Wind** | Luminosity | Snow |
|---|---|---|---|---|---|---|---|
| 1787750990 | 25° C | 94% | 1009.9 hPa | 4.83 mm | 0 m/s | 0 W/m² | - |
| 1787750929 | 25° C | 94% | 1009.9 hPa | 4.83 mm | 0.45 m/s, 291° | 0 W/m² | - |
| 1787750868 | 25° C | 94% | 1010 hPa | 4.83 mm | 0.89 m/s, 229° | 0 W/m² | - |
| 1787750807 | 25° C | 94% | 1009.9 hPa | 4.83 mm | 0 m/s | 0 W/m² | - |
| 1787750746 | 25° C | 94% | 1010 hPa | 4.83 mm | 0 m/s | 0 W/m² | - |
| 1787750685 | 25° C | 94% | 1009.8 hPa | 4.83 mm | 0.89 m/s, 285° | 0 W/m² | - |
| 1787750624 | 25° C | 94% | 1010 hPa | 4.83 mm | 0.45 m/s, 283° | 0 W/m² | - |
| 1787750563 | 25° C | 94% | 1009.8 hPa | 4.83 mm | 0.89 m/s, 311° | 0 W/m² | - |
| 1787750503 | 25° C | 94% | 1009.8 hPa | 4.83 mm | 0.89 m/s, 316° | 0 W/m² | - |
| 1787750441 | 25° C | 94% | 1009.9 hPa | 4.83 mm | 0.45 m/s, 298° | 0 W/m² | - |
| 1787750380 | 25° C | 94% | 1009.8 hPa | 4.83 mm | 0.89 m/s, 275° | 0 W/m² | - |
| 1787750319 | 25° C | 94% | 1009.9 hPa | 4.83 mm | 0.45 m/s, 234° | 0 W/m² | - |
| 1787750258 | 25° C | 94% | 1010.1 hPa | 4.83 mm | 0 m/s | 0 W/m² | - |
| 1787750197 | 25° C | 94% | 1009.9 hPa | 4.83 mm | 0 m/s | 0 W/m² | - |
| 1787750135 | 25° C | 93% | 1010.1 hPa | 4.83 mm | 0.89 m/s, 209° | 0 W/m² | - |
| 1787750075 | 24.44° C | 93% | 1010 hPa | 4.83 mm | 0 m/s | 0 W/m² | - |
| 1787750014 | 24.44° C | 93% | 1010 hPa | 4.83 mm | 0.45 m/s, 290° | 0 W/m² | - |
| 1787749953 | 24.44° C | 93% | 1010 hPa | 4.83 mm | 0.89 m/s, 310° | 0 W/m² | - |
| 1787749892 | 24.44° C | 93% | 1009.9 hPa | 4.83 mm | 0.89 m/s, 352° | 0 W/m² | - |
| 1787749831 | 24.44° C | 93% | 1010 hPa | 4.83 mm | 0.45 m/s, 180° | 0 W/m² | - |
| 1787749770 | 24.44° C | 93% | 1009.9 hPa | 4.83 mm | 0 m/s | 0 W/m² | - |
| 1787749709 | 24.44° C | 93% | 1009.8 hPa | 4.83 mm | 0.89 m/s, 301° | 0 W/m² | - |
| 1787749648 | 24.44° C | 93% | 1009.9 hPa | 4.83 mm | 0.89 m/s, 259° | 0 W/m² | - |
| 1787749587 | 24.44° C | 93% | 1009.9 hPa | 4.83 mm | 2.68 m/s, 298° | 0 W/m² | - |
| 1787749526 | 24.44° C | 93% | 1009.7 hPa | 4.83 mm | 2.24 m/s, 279° | 0 W/m² | - |
* Rain latest hour (hover to see other rain measurements)
** Current wind speed in m/s (hover to see current wind gust speed)